createdAt,value
2017-06-16T00:00:27.194Z,19.1
2017-06-16T00:01:34.683Z,19.1
2017-06-16T00:02:42.172Z,19.1
2017-06-16T00:03:49.683Z,19.2
2017-06-16T00:04:57.172Z,19.2
2017-06-16T00:06:04.673Z,19.1
2017-06-16T00:07:11.836Z,19.2
2017-06-16T00:08:19.319Z,19.2
2017-06-16T00:09:26.808Z,19.1
2017-06-16T00:10:34.293Z,19.1
2017-06-16T00:11:41.792Z,19.2
2017-06-16T00:12:49.579Z,19.2
2017-06-16T00:13:57.081Z,19.1
2017-06-16T00:15:04.579Z,19.2
2017-06-16T00:16:12.077Z,19.1
2017-06-16T00:17:19.567Z,19.2
2017-06-16T00:18:27.057Z,19.1
2017-06-16T00:19:34.557Z,19.1
2017-06-16T00:20:42.048Z,19.1
2017-06-16T00:21:49.539Z,19
2017-06-16T00:22:56.701Z,19
2017-06-16T00:24:04.496Z,19
2017-06-16T00:25:11.982Z,19
2017-06-16T00:26:19.473Z,19
2017-06-16T00:27:26.969Z,18.9
2017-06-16T00:28:34.463Z,18.9
2017-06-16T00:29:42.186Z,18.9
2017-06-16T00:30:49.682Z,18.9
2017-06-16T00:31:56.839Z,18.9
2017-06-16T00:33:04.333Z,18.8
2017-06-16T00:34:11.819Z,18.8
2017-06-16T00:35:19.306Z,18.8
2017-06-16T00:36:26.795Z,18.8
2017-06-16T00:37:34.295Z,18.7
2017-06-16T00:38:41.780Z,18.7
2017-06-16T00:39:49.320Z,18.7
2017-06-16T00:40:56.814Z,18.8
2017-06-16T00:42:04.301Z,18.8
2017-06-16T00:43:10.798Z,18.7
2017-06-16T00:44:18.291Z,18.7
2017-06-16T00:45:25.786Z,18.7
2017-06-16T00:46:33.577Z,18.7
2017-06-16T00:47:41.066Z,18.7
2017-06-16T00:48:48.551Z,18.7
2017-06-16T00:49:56.045Z,18.7
2017-06-16T00:51:03.198Z,18.7
2017-06-16T00:52:10.987Z,18.6
2017-06-16T00:53:18.477Z,18.7
2017-06-16T00:54:25.962Z,18.6
2017-06-16T00:55:33.084Z,18.6
2017-06-16T00:56:40.245Z,18.6
2017-06-16T00:57:47.394Z,18.6
2017-06-16T00:58:54.896Z,18.6
2017-06-16T01:00:02.382Z,18.5
2017-06-16T01:01:09.873Z,18.5
2017-06-16T01:02:17.028Z,18.5
2017-06-16T01:03:24.824Z,18.5
2017-06-16T01:04:32.313Z,18.5
2017-06-16T01:05:39.801Z,18.4
2017-06-16T01:06:47.292Z,18.4
2017-06-16T01:07:54.456Z,18.4
2017-06-16T01:09:02.254Z,18.4
2017-06-16T01:10:09.740Z,18.3
2017-06-16T01:11:17.249Z,18.3
2017-06-16T01:12:24.411Z,18.3
2017-06-16T01:13:31.908Z,18.3
2017-06-16T01:14:39.696Z,18.2
2017-06-16T01:15:46.861Z,18.2
2017-06-16T01:16:54.010Z,18.2
2017-06-16T01:18:01.506Z,18.2
2017-06-16T01:19:08.671Z,18.2
2017-06-16T01:20:16.160Z,18.2
2017-06-16T01:21:23.325Z,18.2
2017-06-16T01:22:30.486Z,18.1
2017-06-16T01:23:37.973Z,18.1
2017-06-16T01:24:45.464Z,18.1
2017-06-16T01:25:52.952Z,18.1
2017-06-16T01:27:00.436Z,18.1
2017-06-16T01:28:07.920Z,18
2017-06-16T01:29:15.409Z,18.1
2017-06-16T01:30:22.573Z,18
2017-06-16T01:31:30.359Z,18
2017-06-16T01:32:37.851Z,18.1
2017-06-16T01:33:45.343Z,18.1
2017-06-16T01:34:52.503Z,18.1
2017-06-16T01:35:59.996Z,18.1
2017-06-16T01:37:07.454Z,18.1
2017-06-16T01:38:14.955Z,18
2017-06-16T01:39:22.448Z,18
2017-06-16T01:40:29.935Z,18
2017-06-16T01:41:37.425Z,18
2017-06-16T01:42:45.215Z,18
2017-06-16T01:43:52.711Z,18
2017-06-16T01:44:59.871Z,18
2017-06-16T01:46:07.372Z,18
2017-06-16T01:47:14.866Z,18
2017-06-16T01:48:22.366Z,18
2017-06-16T01:49:29.856Z,17.9
2017-06-16T01:50:37.355Z,17.9
2017-06-16T01:51:44.523Z,17.9
2017-06-16T01:52:52.010Z,17.8
2017-06-16T01:53:59.804Z,17.9
2017-06-16T01:55:07.291Z,17.9
2017-06-16T01:56:14.789Z,17.9
2017-06-16T01:57:22.270Z,17.9
2017-06-16T01:58:29.767Z,17.8
2017-06-16T01:59:37.257Z,17.8
2017-06-16T02:00:44.746Z,17.8
2017-06-16T02:01:52.237Z,17.8
2017-06-16T02:02:59.733Z,17.7
2017-06-16T02:04:07.448Z,17.7
2017-06-16T02:05:14.939Z,17.7
2017-06-16T02:06:22.425Z,17.7
2017-06-16T02:07:29.586Z,17.7
2017-06-16T02:08:36.743Z,17.6
2017-06-16T02:09:44.229Z,17.6
2017-06-16T02:10:52.025Z,17.6
2017-06-16T02:11:59.510Z,17.6
2017-06-16T02:13:07.004Z,17.6
2017-06-16T02:14:14.486Z,17.6
2017-06-16T02:15:21.977Z,17.6
2017-06-16T02:16:29.764Z,17.6
2017-06-16T02:17:37.257Z,17.6
2017-06-16T02:18:44.743Z,17.6
2017-06-16T02:19:52.407Z,17.5
2017-06-16T02:20:59.567Z,17.5
2017-06-16T02:22:07.358Z,17.5
2017-06-16T02:23:14.512Z,17.5
2017-06-16T02:24:22.001Z,17.5
2017-06-16T02:25:29.165Z,17.5
2017-06-16T02:26:36.664Z,17.5
2017-06-16T02:27:44.127Z,17.5
2017-06-16T02:28:51.291Z,17.5
2017-06-16T02:29:58.781Z,17.5
2017-06-16T02:31:06.275Z,17.5
2017-06-16T02:32:13.768Z,17.5
2017-06-16T02:33:21.551Z,17.5
2017-06-16T02:34:29.039Z,17.5
2017-06-16T02:35:36.205Z,17.5
2017-06-16T02:36:43.688Z,17.5
2017-06-16T02:37:51.173Z,17.5
2017-06-16T02:38:58.631Z,17.5
2017-06-16T02:40:05.795Z,17.5
2017-06-16T02:41:13.284Z,17.5
2017-06-16T02:42:20.764Z,17.5
2017-06-16T02:43:27.927Z,17.5
2017-06-16T02:44:35.388Z,17.5
2017-06-16T02:45:42.884Z,17.5
2017-06-16T02:46:50.376Z,17.5
2017-06-16T02:47:57.861Z,17.5
2017-06-16T02:49:05.358Z,17.5
2017-06-16T02:50:13.141Z,17.5
2017-06-16T02:51:20.633Z,17.5
2017-06-16T02:52:28.119Z,17.5
2017-06-16T02:53:35.615Z,17.5
2017-06-16T02:54:43.116Z,17.5
2017-06-16T02:55:50.910Z,17.5
2017-06-16T02:56:58.397Z,17.4
2017-06-16T02:58:05.232Z,17.4
2017-06-16T02:59:12.385Z,17.4
2017-06-16T03:00:19.874Z,17.5
2017-06-16T03:01:27.667Z,17.5
2017-06-16T03:02:34.838Z,17.4
2017-06-16T03:03:42.318Z,17.5
2017-06-16T03:04:49.808Z,17.5
2017-06-16T03:05:57.309Z,17.5
2017-06-16T03:07:05.093Z,17.5
2017-06-16T03:08:12.252Z,17.5
2017-06-16T03:09:19.743Z,17.5
2017-06-16T03:10:27.239Z,17.5
2017-06-16T03:11:34.397Z,17.5
2017-06-16T03:12:42.189Z,17.5
2017-06-16T03:13:49.680Z,17.5
2017-06-16T03:14:57.166Z,17.5
2017-06-16T03:16:04.657Z,17.5
2017-06-16T03:17:12.146Z,17.5
2017-06-16T03:18:19.936Z,17.5
2017-06-16T03:19:27.430Z,17.5
2017-06-16T03:20:34.919Z,17.5
2017-06-16T03:21:42.410Z,17.5
2017-06-16T03:22:49.902Z,17.5
2017-06-16T03:23:57.696Z,17.5
2017-06-16T03:25:05.187Z,17.6
2017-06-16T03:26:12.670Z,17.6
2017-06-16T03:27:20.163Z,17.6
2017-06-16T03:28:27.652Z,17.6
2017-06-16T03:29:35.446Z,17.6
2017-06-16T03:30:42.936Z,17.6
2017-06-16T03:31:50.432Z,17.6
2017-06-16T03:32:57.593Z,17.6
2017-06-16T03:34:05.080Z,17.5
2017-06-16T03:35:12.878Z,17.5
2017-06-16T03:36:20.380Z,17.5
2017-06-16T03:37:27.537Z,17.5
2017-06-16T03:38:35.025Z,17.5
2017-06-16T03:39:42.540Z,17.6
2017-06-16T03:40:50.326Z,17.5
2017-06-16T03:41:57.814Z,17.6
2017-06-16T03:43:05.304Z,17.6
2017-06-16T03:44:12.789Z,17.6
2017-06-16T03:45:20.275Z,17.6
2017-06-16T03:46:27.763Z,17.6
2017-06-16T03:47:35.249Z,17.6
2017-06-16T03:48:42.741Z,17.6
2017-06-16T03:49:50.192Z,17.6
2017-06-16T03:50:57.345Z,17.6
2017-06-16T03:52:05.060Z,17.6
2017-06-16T03:53:12.220Z,17.6
2017-06-16T03:54:19.707Z,17.6
2017-06-16T03:55:27.163Z,17.7
2017-06-16T03:56:34.655Z,17.6
2017-06-16T03:57:42.020Z,17.7
2017-06-16T03:58:49.499Z,17.7
2017-06-16T03:59:56.988Z,17.7
2017-06-16T04:01:04.771Z,17.7
2017-06-16T04:02:12.257Z,17.7
2017-06-16T04:03:19.743Z,17.7
2017-06-16T04:04:27.233Z,17.7
2017-06-16T04:05:34.728Z,17.7
2017-06-16T04:06:42.214Z,17.7
2017-06-16T04:07:49.940Z,17.7
2017-06-16T04:08:57.428Z,17.7
2017-06-16T04:10:04.588Z,17.7
2017-06-16T04:11:12.076Z,17.7
2017-06-16T04:12:19.875Z,17.7
2017-06-16T04:13:27.365Z,17.7
2017-06-16T04:14:34.854Z,17.7
2017-06-16T04:15:42.348Z,17.7
2017-06-16T04:16:49.856Z,17.7
2017-06-16T04:17:57.643Z,17.7
2017-06-16T04:19:05.132Z,17.7
2017-06-16T04:20:12.622Z,17.7
2017-06-16T04:21:19.778Z,17.7
2017-06-16T04:22:27.283Z,17.7
2017-06-16T04:23:35.101Z,17.7
2017-06-16T04:24:42.586Z,17.8
2017-06-16T04:25:50.078Z,17.8
2017-06-16T04:26:57.607Z,17.8
2017-06-16T04:28:05.100Z,17.9
2017-06-16T04:29:12.584Z,17.8
2017-06-16T04:30:20.073Z,17.8
2017-06-16T04:31:27.572Z,17.9
2017-06-16T04:32:35.064Z,17.9
2017-06-16T04:33:42.851Z,17.9
2017-06-16T04:34:50.337Z,18
2017-06-16T04:35:57.499Z,18
2017-06-16T04:37:04.985Z,17.9
2017-06-16T04:38:12.476Z,18
2017-06-16T04:39:20.268Z,18
2017-06-16T04:40:27.760Z,18
2017-06-16T04:41:35.262Z,18
2017-06-16T04:42:42.754Z,18
2017-06-16T04:43:50.247Z,18.1
2017-06-16T04:44:58.053Z,18.1
2017-06-16T04:46:05.541Z,18.1
2017-06-16T04:47:13.039Z,18.1
2017-06-16T04:48:20.527Z,18.2
2017-06-16T04:49:28.022Z,18.3
2017-06-16T04:50:35.491Z,18.3
2017-06-16T04:51:42.985Z,18.3
2017-06-16T04:52:50.474Z,18.2
2017-06-16T04:53:57.963Z,18.3
2017-06-16T04:55:05.456Z,18.3
2017-06-16T04:56:12.620Z,18.4
2017-06-16T04:57:20.105Z,18.3
2017-06-16T04:58:27.601Z,18.4
2017-06-16T04:59:35.104Z,18.4
2017-06-16T05:00:42.606Z,18.5
2017-06-16T05:01:50.410Z,18.5
2017-06-16T05:02:57.577Z,18.6
2017-06-16T05:04:05.067Z,18.6
2017-06-16T05:05:12.557Z,18.7
2017-06-16T05:06:19.740Z,18.7
2017-06-16T05:07:27.202Z,18.7
2017-06-16T05:08:34.704Z,18.6
2017-06-16T05:09:42.195Z,18.6
2017-06-16T05:10:49.702Z,18.5
2017-06-16T05:11:57.192Z,18.5
2017-06-16T05:13:04.692Z,18.5
2017-06-16T05:14:12.181Z,18.5
2017-06-16T05:15:19.669Z,18.4
2017-06-16T05:16:27.153Z,18.5
2017-06-16T05:17:34.326Z,18.4
2017-06-16T05:18:41.787Z,18.5
2017-06-16T05:19:49.282Z,18.4
2017-06-16T05:20:56.762Z,18.4
2017-06-16T05:22:04.250Z,18.4
2017-06-16T05:23:11.741Z,18.5
2017-06-16T05:24:19.543Z,18.5
2017-06-16T05:25:26.715Z,18.5
2017-06-16T05:26:33.878Z,18.4
2017-06-16T05:27:41.368Z,18.5
2017-06-16T05:28:48.859Z,18.4
2017-06-16T05:29:56.329Z,18.4
2017-06-16T05:31:03.819Z,18.4
2017-06-16T05:32:11.314Z,18.4
2017-06-16T05:33:18.806Z,18.4
2017-06-16T05:34:25.977Z,18.4
2017-06-16T05:35:33.135Z,18.4
2017-06-16T05:36:40.622Z,18.3
2017-06-16T05:37:48.113Z,18.3
2017-06-16T05:38:55.606Z,18.3
2017-06-16T05:40:03.099Z,18.3
2017-06-16T05:41:10.888Z,18.2
2017-06-16T05:42:18.379Z,18.3
2017-06-16T05:43:25.875Z,18.2
2017-06-16T05:44:33.366Z,18.2
2017-06-16T05:45:40.860Z,18.3
2017-06-16T05:46:48.650Z,18.2
2017-06-16T05:47:55.812Z,18.3
2017-06-16T05:49:02.995Z,18.3
2017-06-16T05:50:10.169Z,18.3
2017-06-16T05:51:17.657Z,18.3
2017-06-16T05:52:26.254Z,18.3
2017-06-16T05:53:33.752Z,18.3
2017-06-16T05:54:41.246Z,18.3
2017-06-16T05:55:48.405Z,18.2
2017-06-16T05:56:55.903Z,18.2
2017-06-16T05:58:03.402Z,18.1
2017-06-16T05:59:10.890Z,18.1
2017-06-16T06:00:18.388Z,18.1
2017-06-16T06:01:25.874Z,18.3
2017-06-16T06:02:33.673Z,18.5
2017-06-16T06:03:41.160Z,18.8
2017-06-16T06:04:48.663Z,19.1
2017-06-16T06:05:56.162Z,19.2
2017-06-16T06:07:03.685Z,19.2
2017-06-16T06:08:11.474Z,19.2
2017-06-16T06:09:18.958Z,19.1
2017-06-16T06:10:26.450Z,19.1
2017-06-16T06:11:33.944Z,19
2017-06-16T06:12:41.434Z,18.8
2017-06-16T06:13:49.227Z,18.7
2017-06-16T06:14:56.723Z,18.7
2017-06-16T06:16:04.205Z,18.7
2017-06-16T06:17:11.696Z,18.7
2017-06-16T06:18:19.182Z,18.7
2017-06-16T06:19:26.993Z,18.8
2017-06-16T06:20:34.475Z,18.9
2017-06-16T06:21:41.305Z,19.2
2017-06-16T06:22:48.791Z,19.3
2017-06-16T06:23:56.297Z,19.4
2017-06-16T06:25:03.460Z,19.5
2017-06-16T06:26:10.625Z,19.6
2017-06-16T06:27:18.115Z,19.7
2017-06-16T06:28:25.608Z,19.7
2017-06-16T06:29:33.099Z,19.9
2017-06-16T06:30:40.887Z,20.2
2017-06-16T06:31:48.372Z,20.5
2017-06-16T06:32:55.867Z,20.4
2017-06-16T06:34:03.364Z,20.1
2017-06-16T06:35:10.888Z,20.1
2017-06-16T06:36:18.675Z,20.3
2017-06-16T06:37:26.170Z,20.4
2017-06-16T06:38:33.654Z,20.4
2017-06-16T06:39:41.143Z,20.8
2017-06-16T06:40:48.639Z,21.2
2017-06-16T06:41:56.135Z,21.5
2017-06-16T06:43:03.625Z,21.5
2017-06-16T06:44:11.112Z,21.1
2017-06-16T06:45:18.601Z,20.9
2017-06-16T06:46:26.095Z,20.8
2017-06-16T06:47:33.558Z,21
2017-06-16T06:48:41.054Z,21
2017-06-16T06:49:48.546Z,21.2
2017-06-16T06:50:55.714Z,21.3
2017-06-16T06:52:03.201Z,21.4
2017-06-16T06:53:10.691Z,21.5
2017-06-16T06:54:18.192Z,21.7
2017-06-16T06:55:25.687Z,22
2017-06-16T06:56:33.171Z,22.1
2017-06-16T06:57:40.332Z,22.2
2017-06-16T06:58:47.829Z,22
2017-06-16T06:59:55.617Z,21.8
2017-06-16T07:01:03.114Z,21.8
2017-06-16T07:02:10.267Z,21.8
2017-06-16T07:03:17.764Z,21.5
2017-06-16T07:04:25.265Z,21.5
2017-06-16T07:05:33.053Z,21.6
2017-06-16T07:06:40.540Z,21.7
2017-06-16T07:07:48.026Z,22
2017-06-16T07:08:55.523Z,22.1
2017-06-16T07:10:03.011Z,22.2
2017-06-16T07:11:10.800Z,22.3
2017-06-16T07:12:18.286Z,22.5
2017-06-16T07:13:25.461Z,22.8
2017-06-16T07:14:33.176Z,22.7
2017-06-16T07:15:40.672Z,22.4
2017-06-16T07:16:47.830Z,22.6
2017-06-16T07:17:55.318Z,22.4
2017-06-16T07:19:02.814Z,22.5
2017-06-16T07:20:10.303Z,22.5
2017-06-16T07:21:17.793Z,22.9
2017-06-16T07:22:25.586Z,23.1
2017-06-16T07:23:33.074Z,23.1
2017-06-16T07:24:40.564Z,22.9
2017-06-16T07:25:48.056Z,22.3
2017-06-16T07:26:55.555Z,22
2017-06-16T07:28:03.350Z,21.6
2017-06-16T07:29:10.846Z,21.2
2017-06-16T07:30:18.338Z,20.9
2017-06-16T07:31:25.831Z,21
2017-06-16T07:32:33.327Z,21.1
2017-06-16T07:33:40.814Z,21.6
2017-06-16T07:34:48.308Z,22.1
2017-06-16T07:35:55.795Z,22.5
2017-06-16T07:37:03.295Z,22.8
2017-06-16T07:38:10.784Z,23.2
2017-06-16T07:39:18.582Z,23.4
2017-06-16T07:40:25.744Z,23
2017-06-16T07:41:33.480Z,23
2017-06-16T07:42:40.772Z,23.2
2017-06-16T07:43:47.607Z,23.5
2017-06-16T07:44:55.978Z,23.7
2017-06-16T07:46:03.970Z,23.8
2017-06-16T07:47:11.760Z,23.5
2017-06-16T07:48:18.924Z,23.3
2017-06-16T07:49:26.082Z,23
2017-06-16T07:50:33.964Z,23.1
2017-06-16T07:51:41.121Z,23.3
2017-06-16T07:52:48.639Z,23.1
2017-06-16T07:53:56.133Z,23.3
2017-06-16T07:55:03.626Z,23.4
2017-06-16T07:56:11.125Z,23.1
2017-06-16T07:57:18.627Z,23
2017-06-16T07:58:26.121Z,22.9
2017-06-16T07:59:33.614Z,22.9
2017-06-16T08:00:41.118Z,22.9
2017-06-16T08:01:48.916Z,22.5
2017-06-16T08:02:56.415Z,22.1
2017-06-16T08:04:03.918Z,22
2017-06-16T08:05:11.408Z,22.1
2017-06-16T08:07:26.592Z,22.3
2017-06-16T08:08:34.099Z,22.3
2017-06-16T08:09:40.933Z,22.5
2017-06-16T08:10:48.427Z,22.5
2017-06-16T08:11:55.927Z,22.6
2017-06-16T08:13:03.440Z,22.4
2017-06-16T08:14:10.960Z,22.4
2017-06-16T08:15:18.460Z,22.4
2017-06-16T08:16:25.626Z,22.4
2017-06-16T08:17:32.782Z,22.5
2017-06-16T08:18:39.947Z,22.7
2017-06-16T08:19:46.812Z,22.8
2017-06-16T08:20:53.979Z,22.8
2017-06-16T08:22:01.467Z,22.5
2017-06-16T08:23:08.957Z,22.2
2017-06-16T08:24:16.127Z,22
2017-06-16T08:25:23.622Z,21.6
2017-06-16T08:26:31.115Z,21.6
2017-06-16T08:27:38.615Z,21.5
2017-06-16T08:28:46.117Z,21.5
2017-06-16T08:29:53.608Z,21.8
2017-06-16T08:31:01.104Z,22.1
2017-06-16T08:32:08.604Z,22.4
2017-06-16T08:33:16.094Z,22.8
2017-06-16T08:34:23.592Z,23.1
2017-06-16T08:35:31.086Z,23.1
2017-06-16T08:36:38.581Z,22.7
2017-06-16T08:37:46.076Z,22.5
2017-06-16T08:38:53.567Z,22.8
2017-06-16T08:40:01.303Z,23.1
2017-06-16T08:41:08.851Z,23.2
2017-06-16T08:42:16.339Z,22.8
2017-06-16T08:43:23.844Z,22.9
2017-06-16T08:44:31.337Z,23.1
2017-06-16T08:45:38.836Z,23.5
2017-06-16T08:46:46.643Z,23.6
2017-06-16T08:47:54.137Z,23.6
2017-06-16T08:49:01.628Z,23.4
2017-06-16T08:50:09.123Z,23.8
2017-06-16T08:51:16.284Z,23.9
2017-06-16T08:52:23.781Z,23.9
2017-06-16T08:53:31.280Z,23.9
2017-06-16T08:54:38.770Z,23.8
2017-06-16T08:55:46.263Z,23.8
2017-06-16T08:56:53.759Z,23.5
2017-06-16T08:58:01.260Z,23.7
2017-06-16T08:59:08.753Z,23.9
2017-06-16T09:00:16.249Z,24.3
2017-06-16T09:01:23.740Z,24.5
2017-06-16T09:02:31.237Z,24.2
2017-06-16T09:03:38.752Z,24
2017-06-16T09:04:45.921Z,24.1
2017-06-16T09:05:53.426Z,24.2
2017-06-16T09:07:00.916Z,24.2
2017-06-16T09:08:08.082Z,24.2
2017-06-16T09:09:15.576Z,23.6
2017-06-16T09:10:23.071Z,23.4
2017-06-16T09:11:30.570Z,23.4
2017-06-16T09:12:38.064Z,23.2
2017-06-16T09:13:45.560Z,23.1
2017-06-16T09:14:53.054Z,22.8
2017-06-16T09:16:00.582Z,22.5
2017-06-16T09:17:07.740Z,22.6
2017-06-16T09:18:14.612Z,22.9
2017-06-16T09:19:21.773Z,23.1
2017-06-16T09:20:29.578Z,23.2
2017-06-16T09:21:37.074Z,23.4
2017-06-16T09:22:44.567Z,23.7
2017-06-16T09:23:51.450Z,24
2017-06-16T09:24:58.615Z,24
2017-06-16T09:26:06.115Z,24.1
2017-06-16T09:27:13.610Z,24.1
2017-06-16T09:28:20.773Z,23.9
2017-06-16T09:29:28.267Z,24
2017-06-16T09:30:35.757Z,24.1
2017-06-16T09:31:42.916Z,24.3
2017-06-16T09:32:50.408Z,24.4
2017-06-16T09:33:57.567Z,24.3
2017-06-16T09:35:05.063Z,24.2
2017-06-16T09:36:12.560Z,24.5
2017-06-16T09:37:20.053Z,24.5
2017-06-16T09:38:27.546Z,24.4
2017-06-16T09:39:35.044Z,24.4
2017-06-16T09:40:42.217Z,24.5
2017-06-16T09:41:49.716Z,24.2
2017-06-16T09:42:57.506Z,24.1
2017-06-16T09:44:04.673Z,23.7
2017-06-16T09:45:12.175Z,24.1
2017-06-16T09:46:19.670Z,24.9
2017-06-16T09:47:27.165Z,25.4
2017-06-16T09:48:34.667Z,25.4
2017-06-16T09:49:42.164Z,25.5
2017-06-16T09:50:49.665Z,24.6
2017-06-16T09:51:57.154Z,24.5
2017-06-16T09:53:04.648Z,24.4
2017-06-16T09:54:12.138Z,24.5
2017-06-16T09:55:19.637Z,24.7
2017-06-16T09:56:27.127Z,25
2017-06-16T09:57:34.287Z,24.2
2017-06-16T09:58:41.783Z,23.8
2017-06-16T09:59:49.310Z,23.8
2017-06-16T10:00:56.809Z,24
2017-06-16T10:02:04.305Z,24.1
2017-06-16T10:03:11.809Z,24
2017-06-16T10:04:18.975Z,23.8
2017-06-16T10:05:26.475Z,23.5
2017-06-16T10:06:33.975Z,23.7
2017-06-16T10:07:41.137Z,24
2017-06-16T10:08:48.639Z,23.9
2017-06-16T10:09:56.134Z,23.9
2017-06-16T10:11:03.636Z,23.7
2017-06-16T10:12:11.130Z,23.3
2017-06-16T10:13:18.635Z,23.2
2017-06-16T10:14:26.427Z,23.3
2017-06-16T10:15:33.936Z,23.6
2017-06-16T10:16:41.437Z,23.9
2017-06-16T10:17:48.932Z,24.6
2017-06-16T10:18:56.093Z,24.7
2017-06-16T10:20:03.262Z,24.7
2017-06-16T10:21:10.428Z,25.1
2017-06-16T10:22:17.923Z,25.4
2017-06-16T10:23:25.411Z,25.4
2017-06-16T10:24:32.577Z,25.2
2017-06-16T10:25:40.077Z,25.2
2017-06-16T10:26:47.542Z,25.4
2017-06-16T10:27:55.043Z,25.5
2017-06-16T10:29:02.539Z,25.4
2017-06-16T10:30:09.713Z,25.6
2017-06-16T10:31:17.218Z,25.8
2017-06-16T10:32:25.024Z,26
2017-06-16T10:33:32.514Z,25.9
2017-06-16T10:34:40.018Z,25.7
2017-06-16T10:35:47.509Z,25.1
2017-06-16T10:36:55.002Z,25
2017-06-16T10:38:02.829Z,25.4
2017-06-16T10:39:10.321Z,25.7
2017-06-16T10:40:17.842Z,26.4
2017-06-16T10:41:25.335Z,26.4
2017-06-16T10:42:32.502Z,26.1
2017-06-16T10:43:39.671Z,25.6
2017-06-16T10:44:46.849Z,25.2
2017-06-16T10:45:54.339Z,25.1
2017-06-16T10:47:01.843Z,24.8
2017-06-16T10:48:09.345Z,24.6
2017-06-16T10:49:17.142Z,24.7
2017-06-16T10:50:24.302Z,25
2017-06-16T10:51:31.801Z,25.1
2017-06-16T10:52:39.301Z,25.1
2017-06-16T10:53:46.798Z,25.5
2017-06-16T10:54:54.598Z,25.8
2017-06-16T10:56:02.096Z,25.7
2017-06-16T10:57:09.254Z,25.7
2017-06-16T10:58:16.421Z,25.5
2017-06-16T10:59:23.920Z,25.5
2017-06-16T11:00:31.392Z,25.1
2017-06-16T11:01:38.553Z,25
2017-06-16T11:02:46.053Z,24.8
2017-06-16T11:03:53.549Z,24.3
2017-06-16T11:05:01.042Z,23.8
2017-06-16T11:06:08.837Z,23.8
2017-06-16T11:07:16.339Z,23.9
2017-06-16T11:08:23.499Z,24
2017-06-16T11:09:30.671Z,24.3
2017-06-16T11:10:38.166Z,24.5
2017-06-16T11:11:45.660Z,24.8
2017-06-16T11:12:53.163Z,24.9
2017-06-16T11:14:01.025Z,24.7
2017-06-16T11:15:08.531Z,24.6
2017-06-16T11:16:16.038Z,24.3
2017-06-16T11:17:23.533Z,24.1
2017-06-16T11:18:31.027Z,24.1
2017-06-16T11:19:38.823Z,24.4
2017-06-16T11:20:46.314Z,24.5
2017-06-16T11:21:53.814Z,24.8
2017-06-16T11:23:00.970Z,25.3
2017-06-16T11:24:08.463Z,25.4
2017-06-16T11:25:16.260Z,25.7
2017-06-16T11:26:23.801Z,25.8
2017-06-16T11:27:31.307Z,26.1
2017-06-16T11:28:38.801Z,26.4
2017-06-16T11:29:45.960Z,26.2
2017-06-16T11:30:53.457Z,26.4
2017-06-16T11:32:00.952Z,26
2017-06-16T11:33:07.783Z,26.1
2017-06-16T11:34:15.275Z,25.6
2017-06-16T11:35:23.091Z,25.2
2017-06-16T11:36:30.591Z,24.9
2017-06-16T11:37:38.085Z,24.5
2017-06-16T11:38:45.583Z,24.6
2017-06-16T11:39:53.080Z,24.7
2017-06-16T11:41:00.877Z,24.7
2017-06-16T11:42:08.592Z,24.6
2017-06-16T11:43:16.087Z,24.5
2017-06-16T11:44:23.260Z,24.8
2017-06-16T11:45:30.759Z,24.9
2017-06-16T11:46:38.557Z,24.9
2017-06-16T11:47:45.750Z,24.9
2017-06-16T11:48:53.259Z,24.8
2017-06-16T11:50:00.776Z,24.4
2017-06-16T11:51:08.269Z,24.2
2017-06-16T11:52:15.732Z,24.5
2017-06-16T11:53:23.229Z,24.8
2017-06-16T11:54:30.724Z,25.3
2017-06-16T11:55:38.223Z,25.4
2017-06-16T11:56:45.723Z,25.4
2017-06-16T11:57:52.888Z,25.1
2017-06-16T11:59:00.383Z,24.9
2017-06-16T12:00:07.878Z,24.6
2017-06-16T12:01:15.377Z,24.2
2017-06-16T12:02:22.873Z,23.9
2017-06-16T12:03:30.334Z,23.6
2017-06-16T12:04:37.839Z,23.9
2017-06-16T12:05:45.334Z,24.4
2017-06-16T12:06:52.824Z,24.8
2017-06-16T12:08:00.316Z,25.4
2017-06-16T12:09:08.120Z,25.5
2017-06-16T12:10:15.618Z,25.3
2017-06-16T12:11:23.115Z,25.2
2017-06-16T12:12:30.609Z,25.1
2017-06-16T12:13:38.100Z,24.9
2017-06-16T12:14:45.637Z,25.3
2017-06-16T12:15:52.804Z,25.5
2017-06-16T12:16:59.969Z,25.7
2017-06-16T12:18:07.134Z,26.2
2017-06-16T12:19:14.624Z,26.5
2017-06-16T12:20:22.418Z,26.5
2017-06-16T12:21:29.914Z,26.6
2017-06-16T12:22:37.414Z,26.8
2017-06-16T12:23:44.911Z,26.8
2017-06-16T12:24:52.410Z,26.7
2017-06-16T12:26:00.204Z,26.8
2017-06-16T12:27:07.701Z,26.9
2017-06-16T12:28:15.187Z,26.3
2017-06-16T12:29:22.688Z,26.3
2017-06-16T12:30:30.189Z,26.3
2017-06-16T12:31:37.998Z,26.3
2017-06-16T12:32:45.500Z,25.9
2017-06-16T12:33:52.997Z,26.1
2017-06-16T12:35:00.497Z,26
2017-06-16T12:36:07.992Z,25.8
2017-06-16T12:37:15.167Z,25.5
2017-06-16T12:38:22.332Z,25.3
2017-06-16T12:39:29.846Z,25
2017-06-16T12:40:37.015Z,25
2017-06-16T12:41:44.516Z,25
2017-06-16T12:42:52.317Z,25.2
2017-06-16T12:43:59.811Z,25.1
2017-06-16T12:45:07.304Z,25.1
2017-06-16T12:46:14.794Z,24.7
2017-06-16T12:47:21.957Z,24.7
2017-06-16T12:48:29.427Z,24.4
2017-06-16T12:49:36.632Z,24.3
2017-06-16T12:50:44.378Z,24.3
2017-06-16T12:51:51.872Z,24
2017-06-16T12:52:59.384Z,24
2017-06-16T12:54:07.377Z,23.8
2017-06-16T12:55:14.867Z,24
2017-06-16T12:56:22.362Z,24.2
2017-06-16T12:57:29.857Z,24.7
2017-06-16T12:58:37.600Z,25.2
2017-06-16T12:59:45.102Z,25.2
2017-06-16T13:00:52.262Z,24.5
2017-06-16T13:01:59.432Z,24.1
2017-06-16T13:03:06.597Z,24
2017-06-16T13:04:14.092Z,24
2017-06-16T13:05:21.556Z,23.8
2017-06-16T13:06:29.054Z,23.7
2017-06-16T13:07:36.556Z,23.5
2017-06-16T13:08:44.051Z,23.4
2017-06-16T13:09:51.214Z,23.4
2017-06-16T13:10:59.009Z,23.4
2017-06-16T13:12:06.509Z,23.4
2017-06-16T13:13:14.006Z,23.2
2017-06-16T13:14:21.511Z,23.2
2017-06-16T13:15:29.010Z,23.5
2017-06-16T13:16:36.805Z,23.5
2017-06-16T13:17:44.300Z,23.6
2017-06-16T13:18:51.800Z,23.8
2017-06-16T13:19:59.305Z,24
2017-06-16T13:21:06.796Z,23.9
2017-06-16T13:22:14.294Z,23.6
2017-06-16T13:23:21.789Z,23.6
2017-06-16T13:24:29.292Z,24
2017-06-16T13:25:36.796Z,24.5
2017-06-16T13:26:44.590Z,25
2017-06-16T13:27:52.087Z,25.2
2017-06-16T13:28:59.584Z,25.4
2017-06-16T13:30:07.078Z,25.7
2017-06-16T13:31:14.571Z,25.7
2017-06-16T13:32:22.364Z,26
2017-06-16T13:33:29.856Z,26.4
2017-06-16T13:34:37.026Z,26.2
2017-06-16T13:35:44.526Z,26
2017-06-16T13:36:52.014Z,25.8
2017-06-16T13:37:59.812Z,25.4
2017-06-16T13:39:07.304Z,25.5
2017-06-16T13:40:14.476Z,25.7
2017-06-16T13:41:21.968Z,26
2017-06-16T13:42:29.127Z,25.9
2017-06-16T13:43:36.929Z,26
2017-06-16T13:44:44.422Z,25.8
2017-06-16T13:45:51.920Z,25.6
2017-06-16T13:46:59.088Z,25.3
2017-06-16T13:48:06.577Z,25.3
2017-06-16T13:49:13.731Z,25.3
2017-06-16T13:50:21.215Z,25.3
2017-06-16T13:51:28.724Z,25.1
2017-06-16T13:52:36.219Z,24.7
2017-06-16T13:53:43.720Z,24.9
2017-06-16T13:54:51.189Z,24.9
2017-06-16T13:55:58.683Z,24.9
2017-06-16T13:57:06.179Z,24.8
2017-06-16T13:58:13.668Z,24.7
2017-06-16T13:59:21.171Z,24.8
2017-06-16T14:00:28.640Z,24.9
2017-06-16T14:01:36.132Z,24.7
2017-06-16T14:02:43.301Z,24.6
2017-06-16T14:03:50.803Z,24.9
2017-06-16T14:04:58.303Z,25.1
2017-06-16T14:06:06.099Z,25.4
2017-06-16T14:07:13.595Z,25.8
2017-06-16T14:08:21.102Z,25.8
2017-06-16T14:09:28.595Z,25.7
2017-06-16T14:10:36.095Z,26
2017-06-16T14:11:43.907Z,26.1
2017-06-16T14:12:51.412Z,25.9
2017-06-16T14:13:58.915Z,26.4
2017-06-16T14:15:06.082Z,26.3
2017-06-16T14:16:13.582Z,25.8
2017-06-16T14:17:21.379Z,25.3
2017-06-16T14:18:28.871Z,25.1
2017-06-16T14:19:36.044Z,24.8
2017-06-16T14:20:43.230Z,24.8
2017-06-16T14:21:50.732Z,24.5
2017-06-16T14:22:58.532Z,24.5
2017-06-16T14:24:06.023Z,24.5
2017-06-16T14:25:13.515Z,24.6
2017-06-16T14:26:21.235Z,24.5
2017-06-16T14:27:28.409Z,24.6
2017-06-16T14:28:35.909Z,24.3
2017-06-16T14:29:43.410Z,24.3
2017-06-16T14:30:50.265Z,24.5
2017-06-16T14:31:57.777Z,24.2
2017-06-16T14:33:05.275Z,23.8
2017-06-16T14:34:13.073Z,23.8
2017-06-16T14:35:20.575Z,23.7
2017-06-16T14:36:28.082Z,23.8
2017-06-16T14:37:35.238Z,24
2017-06-16T14:38:42.404Z,23.8
2017-06-16T14:39:49.887Z,23.7
2017-06-16T14:40:57.386Z,23.3
2017-06-16T14:42:04.888Z,23.1
2017-06-16T14:43:12.390Z,23.3
2017-06-16T14:44:19.891Z,23.6
2017-06-16T14:45:27.701Z,23.6
2017-06-16T14:46:35.198Z,23.5
2017-06-16T14:47:42.697Z,23.1
2017-06-16T14:48:50.192Z,23.1
2017-06-16T14:49:57.698Z,23
2017-06-16T14:51:05.202Z,23.1
2017-06-16T14:52:12.692Z,23
2017-06-16T14:53:20.198Z,23.2
2017-06-16T14:54:27.705Z,23.3
2017-06-16T14:55:35.496Z,23.2
2017-06-16T14:56:42.997Z,23
2017-06-16T14:57:50.501Z,22.9
2017-06-16T14:58:58.008Z,22.7
2017-06-16T15:00:05.191Z,22.6
2017-06-16T15:01:13.303Z,22.7
2017-06-16T15:02:20.801Z,22.7
2017-06-16T15:03:27.974Z,22.8
2017-06-16T15:04:35.470Z,23